Time;durP1;ratioP1;P1;durP2;ratioP2;P2;SDS_P1;SDS_P2;PMS_P1;PMS_P2;Temp;Humidity;BMP_temperature;BMP_pressure;BME280_temperature;BME280_humidity;BME280_pressure;Samples;Min_cycle;Max_cycle;Signal;HPM_P1;HPM_P2
2022/08/07 00:00:27;;;;;;;8.20;5.70;;;;;;;;;;754779;188;664428;-53
2022/08/07 00:02:55;;;;;;;7.80;5.50;;;;;;;;;;749258;187;624247;-55
2022/08/07 00:05:19;;;;;;;6.70;5.87;;;;;;;;;;745882;187;635372;-56
2022/08/07 00:07:45;;;;;;;10.40;6.97;;;;;;;;;;754824;184;624888;-53
2022/08/07 00:10:11;;;;;;;7.37;5.97;;;;;;;;;;759952;186;631431;-55
2022/08/07 00:12:36;;;;;;;6.60;5.90;;;;;;;;;;763306;184;621616;-55
2022/08/07 00:15:02;;;;;;;6.63;5.80;;;;;;;;;;766557;184;632634;-54
2022/08/07 00:17:28;;;;;;;8.27;6.13;;;;;;;;;;766710;183;616352;-56
2022/08/07 00:19:54;;;;;;;11.00;6.17;;;;;;;;;;762037;185;618812;-56
2022/08/07 00:22:20;;;;;;;9.60;5.80;;;;;;;;;;762474;184;622750;-56
2022/08/07 00:24:46;;;;;;;11.80;6.10;;;;;;;;;;771331;184;616986;-53
2022/08/07 00:27:12;;;;;;;8.53;6.13;;;;;;;;;;766827;184;629881;-54
2022/08/07 00:29:37;;;;;;;9.87;7.00;;;;;;;;;;762454;184;630565;-56
2022/08/07 00:32:03;;;;;;;8.80;6.10;;;;;;;;;;764817;185;630905;-54
2022/08/07 00:34:29;;;;;;;8.93;6.77;;;;;;;;;;751937;186;631450;-54
2022/08/07 00:36:55;;;;;;;11.10;6.90;;;;;;;;;;751814;185;629748;-54
2022/08/07 00:39:21;;;;;;;8.03;6.00;;;;;;;;;;751603;186;617451;-54
2022/08/07 00:41:47;;;;;;;7.80;6.13;;;;;;;;;;746561;187;623470;-53
2022/08/07 00:44:13;;;;;;;10.23;6.17;;;;;;;;;;758260;185;626493;-55
2022/08/07 00:46:39;;;;;;;9.20;7.37;;;;;;;;;;760771;185;616022;-56
2022/08/07 00:49:04;;;;;;;6.73;5.93;;;;;;;;;;764694;185;620744;-56
2022/08/07 00:51:30;;;;;;;10.47;6.43;;;;;;;;;;760798;184;622318;-54
2022/08/07 00:53:56;;;;;;;11.43;7.00;;;;;;;;;;762287;185;631890;-54
2022/08/07 00:56:22;;;;;;;11.30;6.73;;;;;;;;;;766628;185;620507;-54
2022/08/07 00:58:48;;;;;;;8.10;6.63;;;;;;;;;;765601;184;619227;-54
2022/08/07 01:01:14;;;;;;;11.17;6.00;;;;;;;;;;766760;184;633549;-53
2022/08/07 01:03:39;;;;;;;8.80;6.70;;;;;;;;;;770072;184;613904;-55
2022/08/07 01:06:06;;;;;;;10.70;7.33;;;;;;;;;;766150;184;628269;-54
2022/08/07 01:08:31;;;;;;;10.73;8.17;;;;;;;;;;762942;184;624124;-53
2022/08/07 01:10:57;;;;;;;15.13;7.50;;;;;;;;;;760021;186;628758;-54
2022/08/07 01:13:23;;;;;;;9.63;6.53;;;;;;;;;;759947;186;620700;-56
2022/08/07 01:15:49;;;;;;;10.90;6.43;;;;;;;;;;752705;185;626631;-54
2022/08/07 01:18:15;;;;;;;11.50;6.90;;;;;;;;;;762120;184;630772;-56
2022/08/07 01:20:41;;;;;;;10.30;6.67;;;;;;;;;;767180;184;626193;-56
2022/08/07 01:23:06;;;;;;;12.47;7.00;;;;;;;;;;767158;184;629576;-54
2022/08/07 01:25:32;;;;;;;9.23;7.22;;;;;;;;;;766694;184;626781;-54
2022/08/07 01:27:58;;;;;;;10.37;7.40;;;;;;;;;;770744;182;617234;-56
2022/08/07 01:30:24;;;;;;;10.57;8.10;;;;;;;;;;768759;183;630423;-55
2022/08/07 01:32:50;;;;;;;9.73;7.07;;;;;;;;;;763552;184;628049;-53
2022/08/07 01:35:16;;;;;;;10.80;7.40;;;;;;;;;;753310;186;619238;-57
2022/08/07 01:37:41;;;;;;;10.57;7.87;;;;;;;;;;750361;186;626870;-56
2022/08/07 01:40:08;;;;;;;15.00;8.90;;;;;;;;;;761905;184;621942;-53
2022/08/07 01:42:34;;;;;;;9.10;7.87;;;;;;;;;;763598;185;629648;-56
2022/08/07 01:44:59;;;;;;;10.83;8.33;;;;;;;;;;764826;185;618692;-56
2022/08/07 01:47:25;;;;;;;13.07;7.50;;;;;;;;;;760319;184;631622;-53
2022/08/07 01:49:51;;;;;;;11.20;7.70;;;;;;;;;;760535;184;629856;-54
2022/08/07 01:52:17;;;;;;;13.83;8.90;;;;;;;;;;764376;186;622829;-53
2022/08/07 01:54:43;;;;;;;14.30;7.07;;;;;;;;;;760611;184;629861;-53
2022/08/07 01:57:10;;;;;;;12.20;8.87;;;;;;;;;;760725;184;615090;-54
2022/08/07 01:59:36;;;;;;;15.30;8.30;;;;;;;;;;760598;184;635090;-56
2022/08/07 02:02:03;;;;;;;11.40;8.10;;;;;;;;;;763004;186;631560;-54
2022/08/07 02:04:31;;;;;;;10.60;8.33;;;;;;;;;;755406;184;619402;-56
2022/08/07 02:06:57;;;;;;;11.67;8.37;;;;;;;;;;760463;184;625152;-53
2022/08/07 02:09:23;;;;;;;12.93;8.50;;;;;;;;;;763795;184;620047;-55
2022/08/07 02:11:49;;;;;;;13.73;8.13;;;;;;;;;;759885;184;638022;-54
2022/08/07 02:14:15;;;;;;;15.10;8.50;;;;;;;;;;757254;184;621657;-55
2022/08/07 02:16:40;;;;;;;9.57;7.60;;;;;;;;;;755084;188;623385;-53
2022/08/07 02:19:06;;;;;;;12.73;8.97;;;;;;;;;;755953;186;637725;-54
2022/08/07 02:21:34;;;;;;;10.03;8.27;;;;;;;;;;759927;186;627730;-53
2022/08/07 02:23:58;;;;;;;12.83;8.37;;;;;;;;;;760018;184;620679;-57
2022/08/07 02:26:24;;;;;;;12.50;9.50;;;;;;;;;;764025;186;609277;-54
2022/08/07 02:28:50;;;;;;;10.97;9.40;;;;;;;;;;760145;184;629299;-55
2022/08/07 02:31:16;;;;;;;16.37;10.73;;;;;;;;;;760036;186;634206;-56
2022/08/07 02:33:42;;;;;;;13.80;9.43;;;;;;;;;;768846;184;628982;-56
2022/08/07 02:36:08;;;;;;;12.67;9.33;;;;;;;;;;762844;184;629904;-56
2022/08/07 02:38:34;;;;;;;12.33;10.10;;;;;;;;;;760020;184;626920;-54
2022/08/07 02:40:59;;;;;;;14.50;10.33;;;;;;;;;;768621;183;627783;-55
2022/08/07 02:43:25;;;;;;;12.83;9.50;;;;;;;;;;762557;183;618393;-55
2022/08/07 02:45:51;;;;;;;12.50;10.00;;;;;;;;;;761570;186;627046;-53
2022/08/07 02:48:17;;;;;;;14.17;10.40;;;;;;;;;;761681;185;627840;-54
2022/08/07 02:50:43;;;;;;;11.73;9.43;;;;;;;;;;767288;185;611295;-56
2022/08/07 02:53:10;;;;;;;13.73;10.00;;;;;;;;;;763449;184;629970;-53
2022/08/07 02:55:35;;;;;;;13.70;9.73;;;;;;;;;;767522;184;622051;-57
2022/08/07 02:58:02;;;;;;;14.00;10.10;;;;;;;;;;770716;184;621835;-54
2022/08/07 03:00:28;;;;;;;14.10;10.00;;;;;;;;;;763047;184;612634;-56
2022/08/07 03:02:53;;;;;;;14.37;10.73;;;;;;;;;;766753;184;625678;-54
2022/08/07 03:05:19;;;;;;;13.63;10.53;;;;;;;;;;770504;184;637761;-58
2022/08/07 03:07:46;;;;;;;14.37;10.23;;;;;;;;;;764892;184;633993;-52
2022/08/07 03:10:11;;;;;;;13.70;9.50;;;;;;;;;;763144;185;626016;-55
2022/08/07 03:12:37;;;;;;;19.53;10.07;;;;;;;;;;762979;185;618359;-56
2022/08/07 03:15:03;;;;;;;14.37;10.37;;;;;;;;;;757561;185;616722;-56
2022/08/07 03:17:29;;;;;;;12.60;9.47;;;;;;;;;;759279;185;635109;-53
2022/08/07 03:19:55;;;;;;;12.90;9.90;;;;;;;;;;754208;186;629315;-54
2022/08/07 03:22:21;;;;;;;13.40;9.70;;;;;;;;;;754864;188;637641;-53
2022/08/07 03:24:46;;;;;;;15.10;10.40;;;;;;;;;;757405;185;622085;-56
2022/08/07 03:27:12;;;;;;;23.60;10.07;;;;;;;;;;762096;185;666020;-54
2022/08/07 03:29:39;;;;;;;12.53;8.80;;;;;;;;;;765330;185;632328;-56
2022/08/07 03:32:05;;;;;;;17.80;9.60;;;;;;;;;;760743;184;627036;-53
2022/08/07 03:34:31;;;;;;;13.77;9.37;;;;;;;;;;762179;184;615058;-56
2022/08/07 03:36:56;;;;;;;19.57;10.50;;;;;;;;;;757713;185;629012;-56
2022/08/07 03:39:22;;;;;;;15.23;10.43;;;;;;;;;;763766;184;619955;-57
2022/08/07 03:41:48;;;;;;;13.20;9.40;;;;;;;;;;758062;185;619122;-55
2022/08/07 03:44:14;;;;;;;14.17;9.30;;;;;;;;;;760714;184;629012;-56
2022/08/07 03:46:40;;;;;;;10.27;9.00;;;;;;;;;;764649;184;628781;-54
2022/08/07 03:49:06;;;;;;;16.27;9.83;;;;;;;;;;762063;184;617876;-54
2022/08/07 03:51:32;;;;;;;20.37;10.23;;;;;;;;;;760722;182;633051;-56
2022/08/07 03:53:57;;;;;;;12.87;9.90;;;;;;;;;;766820;184;624698;-54
2022/08/07 03:56:23;;;;;;;13.10;10.60;;;;;;;;;;761766;184;629173;-56
2022/08/07 03:58:49;;;;;;;15.70;10.13;;;;;;;;;;762006;184;627792;-53
2022/08/07 04:01:16;;;;;;;16.60;11.27;;;;;;;;;;761914;184;641251;-56
2022/08/07 04:03:42;;;;;;;21.37;11.77;;;;;;;;;;753808;186;625141;-54
2022/08/07 04:06:08;;;;;;;13.60;10.80;;;;;;;;;;763099;184;626850;-53
2022/08/07 04:08:33;;;;;;;15.33;11.30;;;;;;;;;;762338;184;615152;-57
2022/08/07 04:10:59;;;;;;;17.40;11.57;;;;;;;;;;764600;185;621352;-53
2022/08/07 04:13:25;;;;;;;15.23;11.87;;;;;;;;;;762651;185;620416;-54
2022/08/07 04:15:51;;;;;;;12.97;10.97;;;;;;;;;;761650;184;625307;-54
2022/08/07 04:18:17;;;;;;;19.13;12.53;;;;;;;;;;764528;184;623809;-54
2022/08/07 04:20:43;;;;;;;16.90;12.80;;;;;;;;;;760598;184;631355;-56
2022/08/07 04:23:08;;;;;;;16.13;11.40;;;;;;;;;;759698;184;617712;-54
2022/08/07 04:25:36;;;;;;;16.80;12.10;;;;;;;;;;762931;184;619279;-57
2022/08/07 04:28:00;;;;;;;21.20;15.93;;;;;;;;;;749817;188;628747;-53
2022/08/07 04:30:26;;;;;;;19.03;14.37;;;;;;;;;;752846;186;627432;-54
2022/08/07 04:32:52;;;;;;;16.20;11.90;;;;;;;;;;757459;184;636741;-54
2022/08/07 04:35:18;;;;;;;17.00;13.27;;;;;;;;;;765461;183;616832;-54
2022/08/07 04:37:44;;;;;;;18.77;13.77;;;;;;;;;;762309;184;629160;-54
2022/08/07 04:40:10;;;;;;;19.07;14.30;;;;;;;;;;760208;184;633790;-53
2022/08/07 04:42:36;;;;;;;12.70;11.30;;;;;;;;;;764764;184;619677;-56
2022/08/07 04:45:02;;;;;;;20.47;14.57;;;;;;;;;;761963;184;619935;-53
2022/08/07 04:47:28;;;;;;;13.73;12.30;;;;;;;;;;761120;184;616371;-56
2022/08/07 04:49:56;;;;;;;16.50;11.32;;;;;;;;;;760931;184;628940;-56
2022/08/07 04:52:35;;;;;;;18.37;12.87;;;;;;;;;;770613;182;618204;-56
2022/08/07 04:55:01;;;;;;;24.77;13.37;;;;;;;;;;760822;183;622381;-53
2022/08/07 04:57:26;;;;;;;16.40;13.43;;;;;;;;;;760632;184;633842;-57
2022/08/07 05:00:08;;;;;;;14.80;12.13;;;;;;;;;;759549;184;624938;-53
2022/08/07 05:02:36;;;;;;;15.53;11.60;;;;;;;;;;766765;182;636155;-54
2022/08/07 05:05:02;;;;;;;22.80;20.20;;;;;;;;;;772068;181;627061;-56
2022/08/07 05:07:34;;;;;;;18.67;12.37;;;;;;;;;;762474;183;621732;-56
2022/08/07 05:10:00;;;;;;;31.67;28.33;;;;;;;;;;762052;184;633014;-56
2022/08/07 05:12:26;;;;;;;20.50;15.53;;;;;;;;;;765851;184;626919;-53
2022/08/07 05:14:52;;;;;;;31.13;25.70;;;;;;;;;;758973;184;619603;-54
2022/08/07 05:17:18;;;;;;;21.93;17.40;;;;;;;;;;759448;184;624183;-53
2022/08/07 05:19:43;;;;;;;27.33;19.10;;;;;;;;;;760031;183;623588;-58
2022/08/07 05:22:09;;;;;;;41.70;25.17;;;;;;;;;;764198;184;630736;-56
2022/08/07 05:24:35;;;;;;;58.67;32.90;;;;;;;;;;759846;184;632336;-54
2022/08/07 05:27:01;;;;;;;21.03;15.07;;;;;;;;;;760696;184;623726;-57
2022/08/07 05:29:27;;;;;;;44.97;29.33;;;;;;;;;;763154;185;630674;-57
2022/08/07 05:31:53;;;;;;;23.23;17.57;;;;;;;;;;761032;185;630959;-54
2022/08/07 05:34:19;;;;;;;38.43;27.93;;;;;;;;;;763783;183;614758;-59
2022/08/07 05:36:45;;;;;;;35.03;21.13;;;;;;;;;;767399;184;618839;-53
2022/08/07 05:39:11;;;;;;;40.43;25.10;;;;;;;;;;761865;184;614564;-56
2022/08/07 05:41:37;;;;;;;25.40;17.57;;;;;;;;;;760215;183;663099;-56
2022/08/07 05:44:03;;;;;;;23.87;18.63;;;;;;;;;;760889;184;619819;-54
2022/08/07 05:46:29;;;;;;;25.03;16.60;;;;;;;;;;763401;184;618473;-58
2022/08/07 05:48:55;;;;;;;25.43;16.03;;;;;;;;;;759478;184;633370;-54
2022/08/07 05:51:21;;;;;;;18.57;16.30;;;;;;;;;;760806;184;629303;-57
2022/08/07 05:53:46;;;;;;;20.57;15.90;;;;;;;;;;765728;184;616769;-56
2022/08/07 05:56:12;;;;;;;23.37;16.50;;;;;;;;;;761923;184;633976;-56
2022/08/07 05:58:38;;;;;;;20.10;16.30;;;;;;;;;;760040;184;648851;-54
2022/08/07 06:01:05;;;;;;;24.57;17.27;;;;;;;;;;757134;186;616877;-55
2022/08/07 06:03:31;;;;;;;24.03;17.80;;;;;;;;;;751240;188;623062;-57
2022/08/07 06:05:57;;;;;;;21.03;16.67;;;;;;;;;;748799;184;633515;-56
2022/08/07 06:08:22;;;;;;;26.60;20.70;;;;;;;;;;760337;184;717636;-57
2022/08/07 06:10:48;;;;;;;29.07;17.17;;;;;;;;;;766992;183;625861;-56
2022/08/07 06:13:14;;;;;;;24.13;17.70;;;;;;;;;;766891;183;627115;-56
2022/08/07 06:15:40;;;;;;;23.77;17.57;;;;;;;;;;769279;181;645122;-63
2022/08/07 06:18:06;;;;;;;18.03;15.40;;;;;;;;;;769292;183;618769;-57
2022/08/07 06:20:32;;;;;;;18.53;14.50;;;;;;;;;;759642;185;620620;-57
2022/08/07 06:22:57;;;;;;;17.73;14.83;;;;;;;;;;763989;183;628033;-54
2022/08/07 06:25:23;;;;;;;19.43;14.17;;;;;;;;;;765372;184;616627;-58
2022/08/07 06:27:49;;;;;;;16.60;13.90;;;;;;;;;;759419;184;619086;-56
2022/08/07 06:30:15;;;;;;;20.60;14.50;;;;;;;;;;759173;184;619438;-58
2022/08/07 06:32:41;;;;;;;14.63;13.13;;;;;;;;;;760515;184;634039;-58
2022/08/07 06:35:07;;;;;;;18.87;13.57;;;;;;;;;;762249;184;621688;-58
2022/08/07 06:37:33;;;;;;;18.47;14.33;;;;;;;;;;764262;184;617225;-54
2022/08/07 06:39:59;;;;;;;17.03;10.53;;;;;;;;;;765286;184;632943;-54
2022/08/07 06:42:26;;;;;;;16.47;12.50;;;;;;;;;;765021;184;625881;-55
2022/08/07 06:44:52;;;;;;;17.13;12.53;;;;;;;;;;762645;185;632797;-57
2022/08/07 06:47:18;;;;;;;20.47;13.33;;;;;;;;;;763559;184;626713;-54
2022/08/07 06:49:44;;;;;;;15.40;10.80;;;;;;;;;;752767;184;623565;-55
2022/08/07 06:52:10;;;;;;;13.53;10.83;;;;;;;;;;762992;184;629243;-54
2022/08/07 06:54:35;;;;;;;12.63;9.03;;;;;;;;;;758203;184;624712;-55
2022/08/07 06:57:01;;;;;;;15.37;10.23;;;;;;;;;;762126;184;650707;-57
2022/08/07 06:59:29;;;;;;;13.40;9.23;;;;;;;;;;760860;187;624347;-54
2022/08/07 07:01:56;;;;;;;9.37;8.37;;;;;;;;;;761132;185;628519;-55
2022/08/07 07:04:21;;;;;;;13.60;9.03;;;;;;;;;;759781;185;617054;-54
2022/08/07 07:06:47;;;;;;;8.93;7.90;;;;;;;;;;767027;184;672322;-56
2022/08/07 07:09:15;;;;;;;11.40;8.60;;;;;;;;;;761882;184;625590;-55
2022/08/07 07:11:41;;;;;;;10.80;7.47;;;;;;;;;;762200;184;631851;-54
2022/08/07 07:14:07;;;;;;;14.27;8.90;;;;;;;;;;761633;184;732170;-55
2022/08/07 07:16:34;;;;;;;12.57;9.07;;;;;;;;;;763479;183;620010;-57
2022/08/07 07:18:59;;;;;;;11.30;9.33;;;;;;;;;;762429;184;630712;-55
2022/08/07 07:21:25;;;;;;;15.90;8.43;;;;;;;;;;751301;184;629094;-54
2022/08/07 07:23:50;;;;;;;12.93;9.40;;;;;;;;;;755119;186;630156;-55
2022/08/07 07:26:16;;;;;;;11.77;8.60;;;;;;;;;;757552;184;635751;-57
2022/08/07 07:28:43;;;;;;;11.17;8.07;;;;;;;;;;760752;184;622754;-55
2022/08/07 07:31:09;;;;;;;23.43;8.70;;;;;;;;;;765239;184;615202;-57
2022/08/07 07:33:35;;;;;;;12.50;8.40;;;;;;;;;;763439;184;617889;-54
2022/08/07 07:36:01;;;;;;;13.27;8.17;;;;;;;;;;760723;184;627073;-58
2022/08/07 07:38:27;;;;;;;11.83;8.03;;;;;;;;;;758233;184;623981;-56
2022/08/07 07:40:54;;;;;;;19.10;8.30;;;;;;;;;;761094;184;619954;-55
2022/08/07 07:43:20;;;;;;;10.70;7.70;;;;;;;;;;753724;184;627942;-58
2022/08/07 07:45:45;;;;;;;15.40;7.67;;;;;;;;;;762694;184;626968;-54
2022/08/07 07:48:11;;;;;;;14.23;8.60;;;;;;;;;;765309;184;622927;-54
2022/08/07 07:50:37;;;;;;;8.50;7.17;;;;;;;;;;761288;184;637587;-55
2022/08/07 07:53:03;;;;;;;11.43;7.30;;;;;;;;;;761959;184;618757;-56
2022/08/07 07:55:29;;;;;;;14.33;7.60;;;;;;;;;;765081;183;631256;-55
2022/08/07 07:57:55;;;;;;;16.87;8.07;;;;;;;;;;761558;184;631725;-56
2022/08/07 08:00:20;;;;;;;14.23;7.57;;;;;;;;;;761512;184;633171;-57
2022/08/07 08:02:46;;;;;;;9.00;6.60;;;;;;;;;;763423;184;628852;-58
2022/08/07 08:05:12;;;;;;;8.40;6.33;;;;;;;;;;761912;184;660914;-58
2022/08/07 08:07:38;;;;;;;6.50;5.90;;;;;;;;;;759032;184;634070;-58
2022/08/07 08:10:04;;;;;;;7.70;6.47;;;;;;;;;;762697;184;629226;-57
2022/08/07 08:12:30;;;;;;;8.30;6.67;;;;;;;;;;763500;184;628700;-57
2022/08/07 08:14:56;;;;;;;7.17;5.40;;;;;;;;;;760322;184;628417;-58
2022/08/07 08:17:22;;;;;;;5.63;5.00;;;;;;;;;;760972;184;639480;-55
2022/08/07 08:19:48;;;;;;;11.20;5.00;;;;;;;;;;765118;184;623316;-60
2022/08/07 08:27:16;;;;;;;8.77;5.77;;;;;;;;;;758514;184;629936;-58
2022/08/07 08:29:42;;;;;;;7.77;5.07;;;;;;;;;;763639;184;632314;-55
2022/08/07 08:32:08;;;;;;;11.73;5.00;;;;;;;;;;759082;183;625074;-55
2022/08/07 08:34:34;;;;;;;8.23;5.03;;;;;;;;;;758563;184;619024;-58
2022/08/07 08:37:00;;;;;;;8.73;4.37;;;;;;;;;;763527;183;620263;-59
2022/08/07 08:39:26;;;;;;;9.03;5.30;;;;;;;;;;761996;183;681453;-55
2022/08/07 08:41:52;;;;;;;6.97;4.40;;;;;;;;;;759964;184;623500;-55
2022/08/07 08:44:18;;;;;;;6.40;3.93;;;;;;;;;;761720;184;627232;-58
2022/08/07 08:46:57;;;;;;;6.77;5.93;;;;;;;;;;766660;184;618959;-58
2022/08/07 08:49:29;;;;;;;8.77;5.77;;;;;;;;;;761244;185;629898;-55
2022/08/07 08:51:56;;;;;;;6.80;4.80;;;;;;;;;;758684;184;632146;-59
2022/08/07 08:54:24;;;;;;;11.73;5.10;;;;;;;;;;754048;184;619150;-58
2022/08/07 08:56:51;;;;;;;5.43;4.00;;;;;;;;;;757388;184;619197;-55
2022/08/07 08:59:35;;;;;;;9.23;4.40;;;;;;;;;;754323;184;623019;-56
2022/08/07 09:02:00;;;;;;;6.63;4.80;;;;;;;;;;761632;184;632891;-55
2022/08/07 09:04:25;;;;;;;7.70;4.73;;;;;;;;;;760996;184;618900;-55
2022/08/07 09:06:51;;;;;;;8.13;5.60;;;;;;;;;;759044;185;618474;-57
2022/08/07 09:09:20;;;;;;;5.90;4.77;;;;;;;;;;762075;184;617266;-55
2022/08/07 09:11:49;;;;;;;5.33;4.40;;;;;;;;;;757700;184;625117;-55
2022/08/07 09:14:15;;;;;;;4.60;3.90;;;;;;;;;;760022;184;624849;-58
2022/08/07 09:16:49;;;;;;;6.30;3.80;;;;;;;;;;761039;184;622839;-59
2022/08/07 09:19:21;;;;;;;4.97;3.70;;;;;;;;;;757950;184;629343;-59
2022/08/07 09:21:46;;;;;;;6.90;3.33;;;;;;;;;;758746;184;626135;-56
2022/08/07 09:24:15;;;;;;;6.43;3.67;;;;;;;;;;759010;184;629462;-59
2022/08/07 09:26:44;;;;;;;5.57;3.20;;;;;;;;;;758658;184;625235;-55
2022/08/07 09:29:09;;;;;;;7.53;4.10;;;;;;;;;;764372;184;626853;-55
2022/08/07 09:31:36;;;;;;;3.63;2.90;;;;;;;;;;761282;184;624770;-57
2022/08/07 09:34:06;;;;;;;21.90;4.40;;;;;;;;;;760676;184;633238;-57
2022/08/07 09:36:32;;;;;;;3.73;3.33;;;;;;;;;;760749;184;628487;-55
2022/08/07 09:38:58;;;;;;;5.40;3.30;;;;;;;;;;759233;184;613712;-58
2022/08/07 09:41:29;;;;;;;4.97;4.07;;;;;;;;;;760828;184;637145;-55
2022/08/07 09:43:55;;;;;;;3.30;3.00;;;;;;;;;;760292;184;623968;-57
2022/08/07 09:46:28;;;;;;;6.90;3.37;;;;;;;;;;763416;184;628159;-55
2022/08/07 09:49:04;;;;;;;5.97;4.00;;;;;;;;;;764503;183;620998;-56
2022/08/07 09:51:35;;;;;;;5.87;3.83;;;;;;;;;;760999;183;636891;-59
2022/08/07 09:54:01;;;;;;;5.67;3.43;;;;;;;;;;759975;184;629071;-55
2022/08/07 09:56:29;;;;;;;6.37;4.03;;;;;;;;;;759904;184;629773;-55
2022/08/07 09:58:55;;;;;;;6.20;4.00;;;;;;;;;;764172;184;624345;-56
2022/08/07 10:01:27;;;;;;;7.17;4.73;;;;;;;;;;762946;184;628539;-56
2022/08/07 10:03:54;;;;;;;5.90;4.43;;;;;;;;;;761163;183;626614;-59
2022/08/07 10:06:39;;;;;;;7.07;4.00;;;;;;;;;;760264;184;633655;-58
2022/08/07 10:09:06;;;;;;;6.50;4.30;;;;;;;;;;759829;183;637597;-57
2022/08/07 10:11:32;;;;;;;8.07;4.20;;;;;;;;;;763026;184;619100;-57
2022/08/07 10:14:14;;;;;;;7.23;4.90;;;;;;;;;;761505;184;680885;-58
2022/08/07 10:16:47;;;;;;;9.27;4.00;;;;;;;;;;763035;184;630505;-57
2022/08/07 10:19:28;;;;;;;5.90;3.60;;;;;;;;;;762427;183;625789;-56
2022/08/07 10:22:10;;;;;;;5.10;3.70;;;;;;;;;;765556;183;628419;-58
2022/08/07 10:24:38;;;;;;;5.67;4.40;;;;;;;;;;760730;183;629383;-58
2022/08/07 10:27:14;;;;;;;6.20;3.37;;;;;;;;;;762395;184;625126;-56
2022/08/07 10:29:41;;;;;;;3.97;3.57;;;;;;;;;;763563;184;636625;-57
2022/08/07 10:32:10;;;;;;;4.87;4.37;;;;;;;;;;757992;184;625940;-55
2022/08/07 10:34:53;;;;;;;6.63;3.83;;;;;;;;;;759425;185;621883;-58
2022/08/07 10:37:19;;;;;;;10.73;4.13;;;;;;;;;;761007;184;629211;-57
2022/08/07 10:39:46;;;;;;;5.77;3.87;;;;;;;;;;758964;184;663305;-57
2022/08/07 10:42:14;;;;;;;8.07;4.10;;;;;;;;;;761410;184;617047;-55
2022/08/07 10:44:42;;;;;;;6.73;4.27;;;;;;;;;;754154;185;626165;-54
2022/08/07 10:47:23;;;;;;;5.23;4.30;;;;;;;;;;752824;184;629829;-55
2022/08/07 10:49:50;;;;;;;7.70;3.97;;;;;;;;;;763206;183;625345;-56
2022/08/07 10:52:17;;;;;;;7.53;4.27;;;;;;;;;;759671;184;613762;-56
2022/08/07 10:54:45;;;;;;;4.50;3.73;;;;;;;;;;764439;185;632719;-56
2022/08/07 10:57:11;;;;;;;5.10;4.07;;;;;;;;;;762637;184;624503;-55
2022/08/07 10:59:40;;;;;;;6.17;3.60;;;;;;;;;;764802;184;622375;-58
2022/08/07 11:02:21;;;;;;;10.00;4.30;;;;;;;;;;763492;184;632598;-55
2022/08/07 11:04:56;;;;;;;6.00;3.90;;;;;;;;;;766250;184;617198;-55
2022/08/07 11:07:21;;;;;;;9.77;3.80;;;;;;;;;;765471;184;635719;-58
2022/08/07 11:09:48;;;;;;;5.73;3.50;;;;;;;;;;765608;184;625981;-55
2022/08/07 11:12:13;;;;;;;5.07;3.50;;;;;;;;;;762982;184;633066;-55
2022/08/07 11:14:39;;;;;;;5.50;3.80;;;;;;;;;;766356;184;624985;-58
2022/08/07 11:17:15;;;;;;;9.23;4.47;;;;;;;;;;762902;184;626581;-55
2022/08/07 11:19:42;;;;;;;6.90;4.00;;;;;;;;;;761752;184;616068;-55
2022/08/07 11:22:09;;;;;;;9.10;4.43;;;;;;;;;;757620;184;630629;-55
2022/08/07 11:24:53;;;;;;;5.80;3.83;;;;;;;;;;764612;184;623551;-55
2022/08/07 11:27:20;;;;;;;6.70;4.37;;;;;;;;;;766209;182;628892;-55
2022/08/07 11:29:47;;;;;;;6.10;4.10;;;;;;;;;;759716;184;634930;-55
2022/08/07 11:32:18;;;;;;;11.03;3.90;;;;;;;;;;761505;184;622319;-58
2022/08/07 11:34:45;;;;;;;5.17;3.97;;;;;;;;;;760149;184;630632;-56
2022/08/07 11:37:16;;;;;;;6.60;3.70;;;;;;;;;;762436;184;624647;-58
2022/08/07 11:39:44;;;;;;;10.77;4.20;;;;;;;;;;760660;184;638602;-57
2022/08/07 11:42:09;;;;;;;7.50;3.70;;;;;;;;;;759180;184;626974;-55
2022/08/07 11:44:41;;;;;;;8.63;4.67;;;;;;;;;;759422;184;634125;-58
2022/08/07 11:47:10;;;;;;;7.67;4.53;;;;;;;;;;765378;184;624991;-58
2022/08/07 11:49:51;;;;;;;5.27;4.20;;;;;;;;;;762255;184;630070;-57
2022/08/07 11:52:21;;;;;;;5.40;4.63;;;;;;;;;;762418;184;628822;-56
2022/08/07 11:54:51;;;;;;;5.40;4.67;;;;;;;;;;760313;184;630929;-58
2022/08/07 11:57:33;;;;;;;8.77;5.03;;;;;;;;;;758396;184;626862;-56
2022/08/07 12:00:00;;;;;;;5.90;4.77;;;;;;;;;;756380;183;615637;-56
2022/08/07 12:02:26;;;;;;;5.90;4.13;;;;;;;;;;764655;184;616807;-58
2022/08/07 12:04:58;;;;;;;5.43;4.33;;;;;;;;;;761449;184;621856;-55
2022/08/07 12:07:24;;;;;;;4.90;4.00;;;;;;;;;;762902;184;627929;-56
2022/08/07 12:09:54;;;;;;;7.97;5.30;;;;;;;;;;759932;184;636257;-55
2022/08/07 12:12:21;;;;;;;6.10;4.50;;;;;;;;;;766053;183;633826;-56
2022/08/07 12:14:47;;;;;;;7.40;4.90;;;;;;;;;;762717;183;638605;-59
2022/08/07 12:17:15;;;;;;;6.30;4.83;;;;;;;;;;761059;183;628453;-56
2022/08/07 12:19:49;;;;;;;5.93;4.77;;;;;;;;;;760665;184;626114;-57
2022/08/07 12:22:15;;;;;;;9.00;4.83;;;;;;;;;;766378;184;607399;-55
2022/08/07 12:25:51;;;;;;;14.33;5.47;;;;;;;;;;759489;184;627054;-58
2022/08/07 12:27:10;;;;;;;9.83;5.43;;;;;;;;;;758087;184;630779;-58
2022/08/07 12:29:41;;;;;;;6.03;5.43;;;;;;;;;;758161;184;631906;-58
2022/08/07 12:32:09;;;;;;;6.77;5.50;;;;;;;;;;759117;184;625245;-58
2022/08/07 12:34:35;;;;;;;8.70;4.53;;;;;;;;;;761453;184;614811;-58
2022/08/07 12:37:01;;;;;;;7.37;5.10;;;;;;;;;;761308;184;607174;-55
2022/08/07 12:39:27;;;;;;;7.53;5.07;;;;;;;;;;763749;184;619671;-58
2022/08/07 12:41:53;;;;;;;8.30;5.77;;;;;;;;;;763291;184;624663;-58
2022/08/07 12:44:19;;;;;;;10.43;5.30;;;;;;;;;;762134;184;623091;-57
2022/08/07 12:46:47;;;;;;;4.97;4.13;;;;;;;;;;762303;184;619033;-58
2022/08/07 12:49:12;;;;;;;5.20;4.70;;;;;;;;;;763366;184;621178;-58
2022/08/07 12:51:41;;;;;;;5.67;4.40;;;;;;;;;;761966;184;627109;-56
2022/08/07 12:54:14;;;;;;;7.03;5.10;;;;;;;;;;760164;184;621452;-55
2022/08/07 12:56:41;;;;;;;10.97;4.70;;;;;;;;;;761095;184;628158;-57
2022/08/07 12:59:06;;;;;;;9.87;4.83;;;;;;;;;;762896;184;634867;-56
2022/08/07 13:01:35;;;;;;;6.40;4.87;;;;;;;;;;757998;184;624003;-57
2022/08/07 13:04:02;;;;;;;7.00;5.37;;;;;;;;;;761256;184;622992;-58
2022/08/07 13:06:48;;;;;;;6.83;4.70;;;;;;;;;;764623;184;628978;-59
2022/08/07 13:09:17;;;;;;;7.00;4.40;;;;;;;;;;760522;184;627161;-57
2022/08/07 13:12:01;;;;;;;5.60;4.70;;;;;;;;;;761603;184;623065;-57
2022/08/07 13:14:43;;;;;;;14.33;4.63;;;;;;;;;;763962;183;616095;-56
2022/08/07 13:17:10;;;;;;;8.37;5.10;;;;;;;;;;767386;183;616316;-56
2022/08/07 13:19:41;;;;;;;6.00;4.87;;;;;;;;;;757549;184;639863;-56
2022/08/07 13:22:17;;;;;;;4.33;3.90;;;;;;;;;;758647;184;637085;-57
2022/08/07 13:24:44;;;;;;;10.30;4.47;;;;;;;;;;759981;183;619158;-57
2022/08/07 13:27:09;;;;;;;6.40;4.00;;;;;;;;;;765843;184;619180;-57
2022/08/07 13:29:36;;;;;;;10.00;4.67;;;;;;;;;;762151;184;628068;-56
2022/08/07 13:32:02;;;;;;;11.70;4.93;;;;;;;;;;761161;184;618581;-58
2022/08/07 13:34:30;;;;;;;8.70;4.97;;;;;;;;;;762528;183;636101;-58
2022/08/07 13:36:57;;;;;;;9.67;4.70;;;;;;;;;;759892;185;628244;-57
2022/08/07 13:39:23;;;;;;;5.10;4.50;;;;;;;;;;761467;184;640039;-57
2022/08/07 13:41:49;;;;;;;7.03;3.80;;;;;;;;;;762451;183;608853;-59
2022/08/07 13:44:17;;;;;;;5.67;3.97;;;;;;;;;;763212;184;623607;-58
2022/08/07 13:46:43;;;;;;;4.60;3.87;;;;;;;;;;761336;184;623083;-56
2022/08/07 13:49:09;;;;;;;8.73;4.17;;;;;;;;;;760670;184;629112;-59
2022/08/07 13:51:35;;;;;;;5.27;4.50;;;;;;;;;;761091;184;618886;-59
2022/08/07 13:54:03;;;;;;;4.83;4.33;;;;;;;;;;755750;185;621998;-56
2022/08/07 13:56:28;;;;;;;10.10;3.47;;;;;;;;;;759535;184;634438;-56
2022/08/07 13:59:00;;;;;;;7.67;4.10;;;;;;;;;;759808;184;627128;-57
2022/08/07 14:01:29;;;;;;;7.27;4.30;;;;;;;;;;764684;184;628300;-57
2022/08/07 14:03:55;;;;;;;8.33;4.27;;;;;;;;;;748270;186;636348;-55
2022/08/07 14:06:20;;;;;;;12.17;4.20;;;;;;;;;;761683;184;618791;-58
2022/08/07 14:08:46;;;;;;;4.10;3.60;;;;;;;;;;758999;184;630016;-58
2022/08/07 14:11:12;;;;;;;6.10;4.00;;;;;;;;;;764610;184;629850;-56
2022/08/07 14:13:38;;;;;;;6.20;3.00;;;;;;;;;;764138;184;626727;-56
2022/08/07 14:16:04;;;;;;;4.77;2.90;;;;;;;;;;761239;184;636194;-58
2022/08/07 14:18:31;;;;;;;8.03;3.30;;;;;;;;;;765017;184;629335;-57
2022/08/07 14:20:57;;;;;;;6.30;3.63;;;;;;;;;;757573;184;634593;-55
2022/08/07 14:23:23;;;;;;;6.30;3.40;;;;;;;;;;759220;184;618601;-56